Time;durP1;ratioP1;P1;durP2;ratioP2;P2;SDS_P1;SDS_P2;PMS_P1;PMS_P2;Temp;Humidity;BMP_temperature;BMP_pressure;BME280_temperature;BME280_humidity;BME280_pressure;Samples;Min_cycle;Max_cycle;Signal;HPM_P1;HPM_P2
2022/03/29 00:16:54;;;;;;;31.10;11.73;;;;;;;;;;4840781;29;20042;-84
2022/03/29 00:20:39;;;;;;;36.63;12.52;;;;;;;;;;4776749;29;20059;-85
2022/03/29 04:49:13;;;;;;;14.85;3.20;;;;;;;;;;5036468;28;20068;-79
2022/03/29 04:51:44;;;;;;;16.02;3.88;;;;;;;;;;4975200;28;20084;-81
2022/03/29 04:54:11;;;;;;;18.08;3.35;;;;;;;;;;5001310;28;20112;-79
2022/03/29 04:56:43;;;;;;;13.70;3.03;;;;;;;;;;4983410;28;20265;-83
2022/03/29 04:59:11;;;;;;;16.27;3.10;;;;;;;;;;4992683;28;20053;-83
2022/03/29 05:01:43;;;;;;;22.70;3.67;;;;;;;;;;4991981;28;20046;-82
2022/03/29 05:04:11;;;;;;;16.70;3.22;;;;;;;;;;4977656;28;20119;-80
2022/03/29 05:06:39;;;;;;;14.35;3.40;;;;;;;;;;4992045;28;20396;-81
2022/03/29 05:09:11;;;;;;;18.33;3.60;;;;;;;;;;4975204;28;20050;-79
2022/03/29 05:11:45;;;;;;;13.02;2.30;;;;;;;;;;4989625;28;20054;-78
2022/03/29 05:14:13;;;;;;;20.40;3.15;;;;;;;;;;4969885;28;20547;-81
2022/03/29 05:16:41;;;;;;;13.98;3.13;;;;;;;;;;4960487;28;20058;-83
2022/03/29 05:19:25;;;;;;;15.75;3.50;;;;;;;;;;4983749;28;20049;-77
2022/03/29 05:21:53;;;;;;;15.05;2.80;;;;;;;;;;4991517;28;20373;-80
2022/03/29 05:24:25;;;;;;;12.43;2.58;;;;;;;;;;4981505;28;20047;-80
2022/03/29 05:27:30;;;;;;;11.73;3.28;;;;;;;;;;5007604;28;20054;-81
2022/03/29 05:30:04;;;;;;;17.80;2.88;;;;;;;;;;4990442;28;20507;-80
2022/03/29 05:32:39;;;;;;;18.13;2.92;;;;;;;;;;4970525;28;20073;-82
2022/03/29 05:35:09;;;;;;;18.63;2.78;;;;;;;;;;4991193;28;20048;-81
2022/03/29 05:38:11;;;;;;;18.52;2.92;;;;;;;;;;4996692;28;20150;-82
2022/03/29 05:40:50;;;;;;;15.07;2.28;;;;;;;;;;4968716;28;20058;-81
2022/03/29 05:43:17;;;;;;;20.15;2.35;;;;;;;;;;4992560;28;20092;-81
2022/03/29 05:48:55;;;;;;;23.60;3.45;;;;;;;;;;4992407;28;20057;-81
2022/03/29 05:51:24;;;;;;;12.43;3.03;;;;;;;;;;4983388;28;20050;-81
2022/03/29 05:53:54;;;;;;;11.82;2.50;;;;;;;;;;4909444;28;20059;-82
2022/03/29 05:56:22;;;;;;;13.00;2.50;;;;;;;;;;4991360;28;20188;-81
2022/03/29 05:58:50;;;;;;;15.63;3.10;;;;;;;;;;4989502;28;20050;-82
2022/03/29 06:01:22;;;;;;;19.98;2.63;;;;;;;;;;4984764;28;20106;-81
2022/03/29 06:04:06;;;;;;;15.00;2.92;;;;;;;;;;4972489;28;20061;-81
2022/03/29 06:07:05;;;;;;;11.15;2.28;;;;;;;;;;4986006;28;20034;-82
2022/03/29 06:09:47;;;;;;;17.70;2.95;;;;;;;;;;4959752;28;20505;-81
2022/03/29 06:12:38;;;;;;;13.35;2.35;;;;;;;;;;4982155;28;20055;-81
2022/03/29 06:15:19;;;;;;;22.38;2.33;;;;;;;;;;4940451;28;20392;-81
2022/03/29 06:18:15;;;;;;;19.83;1.88;;;;;;;;;;4980516;28;20062;-81
2022/03/29 06:20:48;;;;;;;17.67;2.25;;;;;;;;;;4976479;28;20476;-80
2022/03/29 06:23:19;;;;;;;15.27;2.42;;;;;;;;;;4975695;28;20057;-81
2022/03/29 06:25:47;;;;;;;17.30;2.47;;;;;;;;;;4980696;28;20097;-81
2022/03/29 06:28:15;;;;;;;14.10;2.05;;;;;;;;;;4969384;28;20132;-81
2022/03/29 06:30:56;;;;;;;14.50;2.00;;;;;;;;;;4988154;28;20404;-81
2022/03/29 06:33:47;;;;;;;20.77;2.78;;;;;;;;;;4945123;28;20066;-83
2022/03/29 06:36:17;;;;;;;11.95;1.65;;;;;;;;;;4946010;28;20060;-81
2022/03/29 06:38:45;;;;;;;16.30;2.20;;;;;;;;;;4983127;28;20054;-83
2022/03/29 06:41:34;;;;;;;14.50;1.95;;;;;;;;;;4961321;28;20042;-82
2022/03/29 06:44:02;;;;;;;14.55;2.30;;;;;;;;;;4990946;28;20765;-81
2022/03/29 06:46:50;;;;;;;16.00;1.90;;;;;;;;;;4962334;28;20042;-81
2022/03/29 06:49:17;;;;;;;11.13;2.10;;;;;;;;;;4975559;28;20065;-81
2022/03/29 06:51:47;;;;;;;13.55;2.20;;;;;;;;;;4985076;28;20527;-82
2022/03/29 06:54:39;;;;;;;9.40;1.45;;;;;;;;;;4962314;28;20465;-82
2022/03/29 06:57:37;;;;;;;9.65;1.90;;;;;;;;;;4981635;28;20421;-81
2022/03/29 07:00:25;;;;;;;13.30;2.03;;;;;;;;;;4958741;28;20523;-82
2022/03/29 07:02:53;;;;;;;16.33;1.67;;;;;;;;;;4981033;28;20051;-81
2022/03/29 07:05:21;;;;;;;14.63;2.05;;;;;;;;;;4937775;28;20078;-82
2022/03/29 07:07:50;;;;;;;10.82;1.70;;;;;;;;;;4986552;28;20060;-82
2022/03/29 07:13:05;;;;;;;13.15;2.67;;;;;;;;;;4968117;28;20050;-81
2022/03/29 07:15:35;;;;;;;8.68;1.50;;;;;;;;;;4978474;28;20467;-81
2022/03/29 07:18:09;;;;;;;9.15;1.48;;;;;;;;;;4952751;28;20047;-82
2022/03/29 07:20:41;;;;;;;10.93;1.70;;;;;;;;;;4954157;28;20081;-82
2022/03/29 07:23:11;;;;;;;8.25;1.65;;;;;;;;;;4969351;28;20133;-83
2022/03/29 07:25:39;;;;;;;8.75;1.95;;;;;;;;;;4971753;28;20074;-82
2022/03/29 07:28:11;;;;;;;13.18;1.98;;;;;;;;;;4966498;28;20074;-81
2022/03/29 07:30:41;;;;;;;8.50;1.48;;;;;;;;;;4986932;28;20061;-82
2022/03/29 07:33:44;;;;;;;12.40;1.88;;;;;;;;;;4983059;28;20055;-82
2022/03/29 07:36:15;;;;;;;15.02;1.77;;;;;;;;;;4949504;28;20058;-82
2022/03/29 07:38:43;;;;;;;11.35;1.90;;;;;;;;;;4966654;28;20057;-82
2022/03/29 07:41:11;;;;;;;12.57;1.67;;;;;;;;;;4971247;28;20078;-81
2022/03/29 07:43:39;;;;;;;11.38;1.90;;;;;;;;;;4975925;28;20062;-82
2022/03/29 07:46:28;;;;;;;6.95;1.27;;;;;;;;;;4983026;28;20133;-82
2022/03/29 07:49:01;;;;;;;15.35;1.67;;;;;;;;;;4977729;28;20117;-82
2022/03/29 07:52:07;;;;;;;14.18;1.30;;;;;;;;;;4983826;28;20642;-82
2022/03/29 07:54:35;;;;;;;10.85;1.80;;;;;;;;;;4976362;28;20057;-82
2022/03/29 07:57:04;;;;;;;8.05;1.23;;;;;;;;;;4993955;28;20392;-82
2022/03/29 07:59:33;;;;;;;11.40;1.92;;;;;;;;;;4983118;28;20053;-83
2022/03/29 08:02:01;;;;;;;9.55;1.58;;;;;;;;;;4983321;28;20058;-84
2022/03/29 08:04:29;;;;;;;3.88;1.40;;;;;;;;;;4969229;28;20123;-82
2022/03/29 08:07:26;;;;;;;9.68;1.77;;;;;;;;;;4984554;28;20450;-83
2022/03/29 08:10:29;;;;;;;22.92;1.80;;;;;;;;;;4986050;28;20054;-82
2022/03/29 08:13:02;;;;;;;7.35;1.25;;;;;;;;;;4985487;28;20057;-83
2022/03/29 08:15:31;;;;;;;13.00;1.80;;;;;;;;;;4962012;28;20077;-82
2022/03/29 08:18:06;;;;;;;11.82;2.10;;;;;;;;;;4973038;28;20132;-82
2022/03/29 08:21:01;;;;;;;10.25;2.15;;;;;;;;;;4981360;28;20058;-82
2022/03/29 08:23:51;;;;;;;11.77;1.63;;;;;;;;;;4991327;28;20128;-84
2022/03/29 08:26:48;;;;;;;9.60;2.08;;;;;;;;;;4986480;28;20056;-83
2022/03/29 08:29:23;;;;;;;9.32;1.33;;;;;;;;;;4963448;28;20055;-83
2022/03/29 08:31:59;;;;;;;11.63;2.65;;;;;;;;;;4960100;28;20057;-82
2022/03/29 08:34:48;;;;;;;9.25;2.15;;;;;;;;;;4971341;28;20061;-83
2022/03/29 08:38:30;;;;;;;11.40;2.00;;;;;;;;;;4978722;28;20172;-83
2022/03/29 08:40:59;;;;;;;8.00;1.70;;;;;;;;;;4936977;28;20059;-82
2022/03/29 08:43:30;;;;;;;5.25;1.52;;;;;;;;;;4950578;28;20055;-83
2022/03/29 08:46:00;;;;;;;5.95;2.08;;;;;;;;;;4920293;29;20470;-83
2022/03/29 08:48:30;;;;;;;9.82;1.55;;;;;;;;;;4917128;29;20058;-82
2022/03/29 08:50:59;;;;;;;5.18;1.70;;;;;;;;;;4908368;29;20581;-81
2022/03/29 08:53:48;;;;;;;7.70;1.63;;;;;;;;;;4903454;29;20130;-83
2022/03/29 08:56:17;;;;;;;5.78;1.80;;;;;;;;;;4932480;29;20048;-82
2022/03/29 08:58:46;;;;;;;9.90;2.15;;;;;;;;;;4914942;29;20055;-83
2022/03/29 09:01:13;;;;;;;11.57;2.22;;;;;;;;;;4916173;29;20048;-83
2022/03/29 09:03:41;;;;;;;7.53;1.75;;;;;;;;;;4901121;29;20134;-83
2022/03/29 09:06:10;;;;;;;10.10;1.52;;;;;;;;;;4919892;29;20512;-83
2022/03/29 09:09:08;;;;;;;12.90;1.85;;;;;;;;;;4918269;29;20056;-82
2022/03/29 09:12:32;;;;;;;8.75;1.58;;;;;;;;;;4945332;28;20488;-82
2022/03/29 09:15:02;;;;;;;10.50;1.65;;;;;;;;;;4976676;28;20078;-82
2022/03/29 09:17:46;;;;;;;5.53;1.60;;;;;;;;;;4963751;28;20609;-79
2022/03/29 09:20:16;;;;;;;6.05;1.40;;;;;;;;;;4978044;28;20472;-81
2022/03/29 09:22:46;;;;;;;5.70;1.38;;;;;;;;;;4969711;28;20117;-81
2022/03/29 09:25:20;;;;;;;9.25;1.15;;;;;;;;;;4968788;28;20042;-81
2022/03/29 09:27:58;;;;;;;6.35;1.10;;;;;;;;;;4963670;28;20101;-81
2022/03/29 09:30:28;;;;;;;11.27;1.70;;;;;;;;;;4975170;28;20141;-80
2022/03/29 09:33:09;;;;;;;10.68;2.17;;;;;;;;;;4961783;28;20058;-82
2022/03/29 09:36:10;;;;;;;9.55;1.67;;;;;;;;;;4977546;28;20051;-81
2022/03/29 09:38:59;;;;;;;8.48;1.25;;;;;;;;;;4963084;28;20062;-82
2022/03/29 09:41:32;;;;;;;9.95;1.42;;;;;;;;;;4955051;28;20067;-80
2022/03/29 09:44:09;;;;;;;8.88;1.50;;;;;;;;;;4955694;28;20042;-80
2022/03/29 09:47:07;;;;;;;10.60;1.40;;;;;;;;;;4942792;28;20055;-80
2022/03/29 09:49:47;;;;;;;5.05;1.27;;;;;;;;;;4935331;28;20141;-81
2022/03/29 09:52:17;;;;;;;6.88;0.77;;;;;;;;;;4965668;28;20050;-82
2022/03/29 09:55:03;;;;;;;5.32;1.45;;;;;;;;;;4991489;28;20057;-82
2022/03/29 09:57:35;;;;;;;4.03;1.10;;;;;;;;;;4986597;28;20546;-81
2022/03/29 10:00:08;;;;;;;6.78;0.82;;;;;;;;;;4962821;28;20105;-82
2022/03/29 10:02:47;;;;;;;7.35;1.13;;;;;;;;;;4948566;28;20555;-81
2022/03/29 10:05:19;;;;;;;7.18;1.15;;;;;;;;;;4976691;28;20051;-81
2022/03/29 10:10:51;;;;;;;10.07;1.35;;;;;;;;;;4965237;28;20169;-81
2022/03/29 10:13:38;;;;;;;10.48;1.50;;;;;;;;;;4946331;28;20055;-80
2022/03/29 10:16:14;;;;;;;4.88;1.48;;;;;;;;;;4944439;28;20081;-82
2022/03/29 10:18:55;;;;;;;7.03;2.10;;;;;;;;;;4955017;28;20370;-81
2022/03/29 10:21:38;;;;;;;7.30;1.25;;;;;;;;;;4938027;28;20413;-81
2022/03/29 10:24:07;;;;;;;7.78;1.40;;;;;;;;;;4962649;28;20050;-81
2022/03/29 10:26:56;;;;;;;4.28;1.05;;;;;;;;;;4949865;28;20127;-82
2022/03/29 10:29:26;;;;;;;3.88;1.20;;;;;;;;;;4958524;28;20079;-81
2022/03/29 10:32:10;;;;;;;7.90;1.30;;;;;;;;;;4950081;28;20043;-80
2022/03/29 10:34:40;;;;;;;4.93;1.20;;;;;;;;;;4976306;28;20117;-82
2022/03/29 10:37:21;;;;;;;6.55;1.20;;;;;;;;;;4963942;28;20050;-81
2022/03/29 10:40:01;;;;;;;5.55;1.40;;;;;;;;;;4934810;28;20055;-81
2022/03/29 10:42:38;;;;;;;6.82;1.25;;;;;;;;;;4967505;28;20581;-82
2022/03/29 10:45:24;;;;;;;6.03;1.00;;;;;;;;;;4941484;28;20046;-81
2022/03/29 10:48:00;;;;;;;6.28;0.90;;;;;;;;;;4970040;28;20057;-81
2022/03/29 10:50:54;;;;;;;6.60;1.38;;;;;;;;;;4985732;28;20088;-81
2022/03/29 10:53:45;;;;;;;6.35;1.30;;;;;;;;;;4991736;28;20042;-82
2022/03/29 10:56:13;;;;;;;4.82;1.10;;;;;;;;;;4985518;28;20338;-82
2022/03/29 10:59:03;;;;;;;5.90;1.67;;;;;;;;;;4989067;28;20798;-80
2022/03/29 11:01:37;;;;;;;7.38;1.50;;;;;;;;;;4988855;28;20050;-82
2022/03/29 11:04:26;;;;;;;8.05;1.33;;;;;;;;;;4991325;28;20445;-81
2022/03/29 11:07:14;;;;;;;8.30;1.38;;;;;;;;;;4978228;28;20062;-81
2022/03/29 11:09:44;;;;;;;8.38;0.98;;;;;;;;;;4976831;28;20110;-82
2022/03/29 11:12:36;;;;;;;8.90;1.27;;;;;;;;;;4973894;28;20050;-81
2022/03/29 11:15:24;;;;;;;7.82;1.92;;;;;;;;;;4951363;28;20160;-82
2022/03/29 11:17:56;;;;;;;5.47;1.15;;;;;;;;;;4989050;28;20042;-83
2022/03/29 11:20:38;;;;;;;5.30;1.30;;;;;;;;;;5018624;23;20050;-91
2022/03/29 11:23:07;;;;;;;7.13;1.20;;;;;;;;;;5015482;28;20064;-91
2022/03/29 11:25:45;;;;;;;5.40;0.80;;;;;;;;;;4987178;28;20576;-91
2022/03/29 11:28:14;;;;;;;8.63;1.63;;;;;;;;;;4995438;28;20053;-91
2022/03/29 11:30:44;;;;;;;5.63;1.25;;;;;;;;;;5003451;28;20054;-91
2022/03/29 11:33:11;;;;;;;6.93;1.80;;;;;;;;;;5034795;28;20045;-91
2022/03/29 11:35:39;;;;;;;7.75;1.30;;;;;;;;;;5000979;28;20729;-91
2022/03/29 11:38:16;;;;;;;7.68;1.20;;;;;;;;;;5011941;28;20123;-91
2022/03/29 11:40:43;;;;;;;6.97;1.35;;;;;;;;;;5008192;28;20909;-91
2022/03/29 11:43:12;;;;;;;8.02;2.13;;;;;;;;;;4993119;28;20451;-91
2022/03/29 11:45:45;;;;;;;6.35;1.38;;;;;;;;;;4986049;28;20069;-91
2022/03/29 11:48:18;;;;;;;5.93;1.65;;;;;;;;;;4984722;28;20057;-91
2022/03/29 11:50:52;;;;;;;6.63;1.20;;;;;;;;;;5040340;28;20057;-89
2022/03/29 11:53:30;;;;;;;4.10;1.10;;;;;;;;;;5021419;28;20164;-88
2022/03/29 11:56:09;;;;;;;3.70;0.95;;;;;;;;;;5004549;28;20061;-89
2022/03/29 11:58:41;;;;;;;6.03;1.75;;;;;;;;;;5010997;28;20140;-88
2022/03/29 12:01:22;;;;;;;8.68;1.42;;;;;;;;;;5035128;28;20517;-89
2022/03/29 12:04:07;;;;;;;5.93;1.02;;;;;;;;;;5018029;28;20557;-89
2022/03/29 12:06:50;;;;;;;4.97;0.98;;;;;;;;;;4999297;28;20112;-89
2022/03/29 12:09:24;;;;;;;6.53;1.17;;;;;;;;;;4985625;28;20088;-89
2022/03/29 12:11:56;;;;;;;7.68;1.55;;;;;;;;;;5023573;28;20460;-89
2022/03/29 12:14:23;;;;;;;6.03;1.38;;;;;;;;;;5035322;28;20444;-90
2022/03/29 12:17:04;;;;;;;5.13;0.93;;;;;;;;;;5006708;28;20052;-90
2022/03/29 12:19:35;;;;;;;9.13;1.38;;;;;;;;;;5033403;28;20064;-90
2022/03/29 12:22:10;;;;;;;6.47;1.20;;;;;;;;;;5014121;28;20045;-90
2022/03/29 12:24:39;;;;;;;7.13;1.23;;;;;;;;;;5035101;28;20053;-90
2022/03/29 12:27:13;;;;;;;6.38;1.17;;;;;;;;;;5034663;28;20061;-90
2022/03/29 12:29:51;;;;;;;11.30;1.30;;;;;;;;;;4997502;28;20054;-90
2022/03/29 12:32:20;;;;;;;7.20;1.58;;;;;;;;;;4998111;28;20046;-90
2022/03/29 12:34:59;;;;;;;7.05;1.70;;;;;;;;;;4990293;28;20553;-90
2022/03/29 12:37:27;;;;;;;5.30;1.38;;;;;;;;;;4998855;28;20046;-90
2022/03/29 12:39:57;;;;;;;5.07;0.95;;;;;;;;;;4984285;28;20049;-89
2022/03/29 12:42:29;;;;;;;6.13;0.90;;;;;;;;;;5004943;28;20099;-90
2022/03/29 12:44:59;;;;;;;4.00;0.90;;;;;;;;;;5035531;28;20104;-90
2022/03/29 12:47:31;;;;;;;4.75;1.38;;;;;;;;;;5033731;28;20502;-90
2022/03/29 12:50:04;;;;;;;8.55;0.95;;;;;;;;;;4995413;28;20042;-90
2022/03/29 12:52:39;;;;;;;8.50;1.50;;;;;;;;;;5032530;28;20041;-90
2022/03/29 12:55:08;;;;;;;8.85;1.65;;;;;;;;;;5009978;28;20124;-90
2022/03/29 12:57:41;;;;;;;8.13;1.13;;;;;;;;;;5039410;28;20083;-90
2022/03/29 13:00:14;;;;;;;6.03;1.20;;;;;;;;;;4988805;28;20057;-90
2022/03/29 13:02:43;;;;;;;10.13;1.27;;;;;;;;;;5025203;28;20055;-90
2022/03/29 13:05:18;;;;;;;7.45;1.10;;;;;;;;;;4987331;28;20459;-86
2022/03/29 13:07:57;;;;;;;7.13;1.40;;;;;;;;;;5037627;28;20050;-86
2022/03/29 13:10:37;;;;;;;9.60;1.23;;;;;;;;;;4979451;28;20120;-86
2022/03/29 13:13:10;;;;;;;4.53;1.55;;;;;;;;;;4995018;28;20052;-86
2022/03/29 13:15:57;;;;;;;4.32;1.45;;;;;;;;;;5008141;28;20054;-87
2022/03/29 13:18:32;;;;;;;6.03;1.40;;;;;;;;;;5017973;28;20049;-87
2022/03/29 13:21:28;;;;;;;5.35;1.60;;;;;;;;;;5025002;28;20501;-86
2022/03/29 13:24:15;;;;;;;8.23;1.17;;;;;;;;;;4999151;28;20041;-86
2022/03/29 13:26:54;;;;;;;5.78;1.20;;;;;;;;;;4987128;28;20147;-86
2022/03/29 13:29:23;;;;;;;9.80;1.38;;;;;;;;;;5031581;28;20060;-87
2022/03/29 13:31:51;;;;;;;4.50;1.05;;;;;;;;;;5015430;28;20045;-87
2022/03/29 13:34:22;;;;;;;8.05;1.67;;;;;;;;;;5023378;28;20041;-87
2022/03/29 13:36:49;;;;;;;7.10;1.02;;;;;;;;;;5031511;28;20462;-87
2022/03/29 13:39:17;;;;;;;6.75;1.10;;;;;;;;;;5001739;28;20054;-87
2022/03/29 13:42:06;;;;;;;7.53;1.45;;;;;;;;;;5008922;28;20053;-90
2022/03/29 13:44:33;;;;;;;5.47;1.00;;;;;;;;;;5000556;28;20060;-87
2022/03/29 13:47:01;;;;;;;8.70;1.52;;;;;;;;;;5010641;28;20404;-87
2022/03/29 13:49:29;;;;;;;4.57;1.10;;;;;;;;;;4991159;28;20054;-86
2022/03/29 13:51:58;;;;;;;6.97;1.45;;;;;;;;;;4994466;28;20041;-86
2022/03/29 13:54:25;;;;;;;6.20;1.70;;;;;;;;;;5010476;28;20087;-86
2022/03/29 13:56:53;;;;;;;4.63;1.25;;;;;;;;;;4994384;28;20050;-86
2022/03/29 13:59:25;;;;;;;7.65;1.52;;;;;;;;;;5020161;28;20492;-86
2022/03/29 14:01:56;;;;;;;6.55;1.30;;;;;;;;;;4995630;28;20052;-86
2022/03/29 14:04:23;;;;;;;4.88;1.15;;;;;;;;;;5018794;28;20378;-87
2022/03/29 14:06:51;;;;;;;7.65;1.00;;;;;;;;;;5030230;28;20061;-87
2022/03/29 14:09:19;;;;;;;18.65;1.65;;;;;;;;;;5048218;28;20100;-87
2022/03/29 14:11:47;;;;;;;6.93;1.35;;;;;;;;;;5025717;28;20183;-87
2022/03/29 14:14:15;;;;;;;10.73;1.85;;;;;;;;;;4976631;28;20046;-86
2022/03/29 14:16:43;;;;;;;6.63;1.35;;;;;;;;;;5045973;28;20053;-90
2022/03/29 14:19:11;;;;;;;7.47;1.60;;;;;;;;;;5016134;28;20127;-90
2022/03/29 14:21:39;;;;;;;6.65;0.98;;;;;;;;;;5012084;28;20650;-90
2022/03/29 14:24:07;;;;;;;5.10;0.93;;;;;;;;;;5019713;28;20045;-90
2022/03/29 14:26:35;;;;;;;6.80;1.73;;;;;;;;;;4998466;28;20053;-90
2022/03/29 14:29:03;;;;;;;5.85;0.90;;;;;;;;;;4979340;28;20053;-90
2022/03/29 14:31:32;;;;;;;5.00;1.20;;;;;;;;;;5015553;28;20492;-90
2022/03/29 14:33:59;;;;;;;9.18;1.10;;;;;;;;;;5020574;28;20079;-90
2022/03/29 14:36:27;;;;;;;5.60;1.20;;;;;;;;;;5030799;28;20068;-90
2022/03/29 14:38:56;;;;;;;6.43;1.40;;;;;;;;;;4998144;28;20505;-90
2022/03/29 14:41:28;;;;;;;7.78;0.90;;;;;;;;;;5014343;28;20071;-90
2022/03/29 14:43:55;;;;;;;3.47;0.88;;;;;;;;;;5015216;28;20072;-90
2022/03/29 14:46:23;;;;;;;8.85;1.20;;;;;;;;;;5014312;28;20523;-90
2022/03/29 14:48:51;;;;;;;4.68;1.95;;;;;;;;;;5002111;28;20076;-90
2022/03/29 14:51:20;;;;;;;5.07;1.15;;;;;;;;;;5004057;28;20140;-90
2022/03/29 14:53:47;;;;;;;3.97;1.17;;;;;;;;;;5001614;28;20057;-90
2022/03/29 14:56:16;;;;;;;6.10;1.27;;;;;;;;;;5001701;28;20061;-90
2022/03/29 14:58:45;;;;;;;10.77;1.35;;;;;;;;;;5021292;28;20049;-90
2022/03/29 15:01:13;;;;;;;3.63;0.82;;;;;;;;;;5002539;28;20060;-90
2022/03/29 15:03:41;;;;;;;8.93;1.25;;;;;;;;;;4995122;28;20053;-90
2022/03/29 15:06:09;;;;;;;7.53;1.40;;;;;;;;;;5037807;28;20057;-90
2022/03/29 15:08:37;;;;;;;6.60;1.10;;;;;;;;;;5031889;28;20041;-90
2022/03/29 15:11:05;;;;;;;4.45;1.08;;;;;;;;;;4988798;28;20588;-90
2022/03/29 15:13:33;;;;;;;7.63;1.05;;;;;;;;;;4999493;28;20053;-90
2022/03/29 15:16:01;;;;;;;11.25;1.58;;;;;;;;;;5000508;28;20057;-90
2022/03/29 15:18:29;;;;;;;4.07;1.13;;;;;;;;;;5027253;28;20053;-90
2022/03/29 15:20:57;;;;;;;8.38;1.60;;;;;;;;;;5019889;28;20072;-90
2022/03/29 15:23:27;;;;;;;5.78;1.48;;;;;;;;;;4999110;28;20106;-90
2022/03/29 15:25:55;;;;;;;8.63;1.40;;;;;;;;;;5020578;28;20049;-90
2022/03/29 15:28:23;;;;;;;7.18;1.52;;;;;;;;;;5028021;28;20065;-90
2022/03/29 15:30:51;;;;;;;6.55;1.17;;;;;;;;;;5003703;28;20057;-89
2022/03/29 15:33:19;;;;;;;10.73;1.85;;;;;;;;;;5020918;28;20532;-90
2022/03/29 15:35:49;;;;;;;17.02;1.80;;;;;;;;;;5025303;28;20053;-90
2022/03/29 15:38:17;;;;;;;5.28;1.27;;;;;;;;;;4986975;28;20968;-90
2022/03/29 15:40:45;;;;;;;8.68;2.20;;;;;;;;;;4988945;28;20054;-90
2022/03/29 15:43:14;;;;;;;10.13;1.52;;;;;;;;;;5002039;28;20053;-90
2022/03/29 15:45:49;;;;;;;7.55;1.23;;;;;;;;;;5029658;28;20144;-90
2022/03/29 15:48:19;;;;;;;4.45;1.10;;;;;;;;;;5039302;28;20052;-90
2022/03/29 15:50:47;;;;;;;10.02;1.20;;;;;;;;;;4986661;28;20053;-90
2022/03/29 15:53:17;;;;;;;11.38;1.40;;;;;;;;;;5032890;28;20825;-90
2022/03/29 15:55:47;;;;;;;10.57;1.73;;;;;;;;;;4989569;28;20050;-90
2022/03/29 15:58:19;;;;;;;4.43;0.95;;;;;;;;;;5009407;28;20073;-90
2022/03/29 16:01:07;;;;;;;5.05;1.27;;;;;;;;;;5000561;28;20084;-90
2022/03/29 16:03:35;;;;;;;10.40;1.63;;;;;;;;;;5033124;28;20044;-90
2022/03/29 16:06:03;;;;;;;7.57;1.27;;;;;;;;;;5030384;28;20040;-90
2022/03/29 16:08:34;;;;;;;4.85;1.15;;;;;;;;;;4991659;28;20057;-90
2022/03/29 16:11:02;;;;;;;7.05;1.30;;;;;;;;;;5016299;28;20049;-90
2022/03/29 16:13:30;;;;;;;6.18;1.40;;;;;;;;;;5020471;28;20459;-90
2022/03/29 16:15:58;;;;;;;6.22;1.45;;;;;;;;;;5005365;28;20891;-90
2022/03/29 16:18:25;;;;;;;8.95;1.75;;;;;;;;;;5018521;28;20052;-90
2022/03/29 16:20:53;;;;;;;9.52;1.30;;;;;;;;;;5019935;28;20630;-90
2022/03/29 16:23:21;;;;;;;5.13;1.13;;;;;;;;;;5017951;28;20493;-90
2022/03/29 16:25:50;;;;;;;6.25;1.48;;;;;;;;;;5031540;28;20050;-90
2022/03/29 16:28:17;;;;;;;8.18;1.33;;;;;;;;;;5006835;28;20091;-90
2022/03/29 16:30:47;;;;;;;6.75;1.02;;;;;;;;;;5049286;28;20141;-87
2022/03/29 16:33:17;;;;;;;6.10;1.15;;;;;;;;;;5031392;28;20049;-87
2022/03/29 16:35:45;;;;;;;9.23;1.63;;;;;;;;;;5032830;28;20769;-87
2022/03/29 16:38:13;;;;;;;8.00;0.88;;;;;;;;;;5039102;28;20103;-87
2022/03/29 16:40:41;;;;;;;4.38;1.00;;;;;;;;;;5019691;28;20224;-87
2022/03/29 16:43:09;;;;;;;6.53;1.15;;;;;;;;;;5020932;28;20124;-87
2022/03/29 16:45:37;;;;;;;6.07;1.13;;;;;;;;;;5036614;28;20052;-87
2022/03/29 16:48:05;;;;;;;8.13;1.92;;;;;;;;;;5002342;28;20060;-87
2022/03/29 16:50:33;;;;;;;11.52;1.85;;;;;;;;;;5038703;28;20049;-86
2022/03/29 16:53:07;;;;;;;4.03;1.17;;;;;;;;;;5034692;28;20069;-87
2022/03/29 16:55:37;;;;;;;8.88;1.58;;;;;;;;;;5021510;28;20047;-87
2022/03/29 16:58:05;;;;;;;4.40;1.17;;;;;;;;;;5036341;28;20053;-87
2022/03/29 17:00:37;;;;;;;10.15;1.27;;;;;;;;;;5015009;28;20619;-87
2022/03/29 17:03:06;;;;;;;13.27;1.55;;;;;;;;;;5014114;28;20056;-86
2022/03/29 17:05:36;;;;;;;6.65;1.23;;;;;;;;;;5011940;28;20045;-86
2022/03/29 17:08:05;;;;;;;9.02;1.67;;;;;;;;;;5000031;28;20057;-87
2022/03/29 17:10:33;;;;;;;10.20;1.30;;;;;;;;;;4998256;28;20084;-87
2022/03/29 17:13:01;;;;;;;9.95;1.25;;;;;;;;;;4995892;28;20084;-86
2022/03/29 17:15:29;;;;;;;9.00;1.35;;;;;;;;;;5014796;28;20096;-86
2022/03/29 17:17:58;;;;;;;6.72;1.45;;;;;;;;;;5010679;28;20553;-86
2022/03/29 17:20:25;;;;;;;6.78;1.73;;;;;;;;;;5027018;28;20412;-87
2022/03/29 17:22:53;;;;;;;7.82;1.30;;;;;;;;;;5022132;28;20053;-87
2022/03/29 17:25:22;;;;;;;5.45;1.05;;;;;;;;;;5025027;28;20128;-87
2022/03/29 17:27:52;;;;;;;9.57;1.50;;;;;;;;;;5014071;28;20107;-87
2022/03/29 17:30:19;;;;;;;10.10;1.40;;;;;;;;;;5002508;28;20048;-87
2022/03/29 17:32:48;;;;;;;7.70;1.50;;;;;;;;;;5033572;28;20144;-87
2022/03/29 17:35:17;;;;;;;8.13;1.42;;;;;;;;;;5009964;28;20544;-86
2022/03/29 17:37:45;;;;;;;11.00;2.20;;;;;;;;;;5016101;28;20046;-87
2022/03/29 17:40:13;;;;;;;6.55;1.50;;;;;;;;;;5048065;28;20517;-87
2022/03/29 17:42:42;;;;;;;7.80;1.40;;;;;;;;;;4999686;28;20049;-87
2022/03/29 17:45:11;;;;;;;5.70;1.48;;;;;;;;;;5008552;28;20071;-86
2022/03/29 17:47:40;;;;;;;4.28;1.15;;;;;;;;;;5032497;28;20049;-86
2022/03/29 17:50:07;;;;;;;6.28;0.95;;;;;;;;;;5018265;28;20062;-86
2022/03/29 17:52:36;;;;;;;10.65;2.00;;;;;;;;;;4976927;28;20719;-87
2022/03/29 17:55:05;;;;;;;5.03;1.65;;;;;;;;;;5008350;28;20048;-87
2022/03/29 17:57:33;;;;;;;8.48;1.45;;;;;;;;;;5034590;28;20076;-87
2022/03/29 18:00:08;;;;;;;6.95;1.15;;;;;;;;;;5030088;28;20068;-87
2022/03/29 18:02:37;;;;;;;6.70;1.38;;;;;;;;;;5005928;28;20095;-87
2022/03/29 18:05:05;;;;;;;7.18;1.35;;;;;;;;;;5012268;28;20057;-87
2022/03/29 18:07:33;;;;;;;5.10;1.20;;;;;;;;;;5033376;28;20049;-87
2022/03/29 18:10:02;;;;;;;7.90;1.20;;;;;;;;;;5032539;28;20037;-87
2022/03/29 18:12:30;;;;;;;8.10;1.25;;;;;;;;;;5020620;28;20049;-87
2022/03/29 18:14:57;;;;;;;6.95;1.80;;;;;;;;;;5045835;28;20041;-87
2022/03/29 18:17:25;;;;;;;5.18;1.02;;;;;;;;;;5002056;28;20053;-87
2022/03/29 18:19:53;;;;;;;7.65;1.52;;;;;;;;;;5038796;28;20168;-87
2022/03/29 18:22:21;;;;;;;5.65;1.25;;;;;;;;;;5019817;28;20053;-87
2022/03/29 18:24:49;;;;;;;5.70;1.20;;;;;;;;;;5017478;28;20527;-87
2022/03/29 18:27:17;;;;;;;4.35;1.20;;;;;;;;;;5014274;28;20049;-87
2022/03/29 18:29:45;;;;;;;5.28;1.77;;;;;;;;;;5036376;28;20045;-87
2022/03/29 18:32:14;;;;;;;6.25;1.20;;;;;;;;;;5046436;28;20956;-87
2022/03/29 18:34:43;;;;;;;9.50;1.60;;;;;;;;;;5042270;28;20045;-86
2022/03/29 18:37:25;;;;;;;7.45;1.48;;;;;;;;;;5016137;28;20046;-87
2022/03/29 18:39:56;;;;;;;10.18;1.70;;;;;;;;;;5003110;28;20589;-87
2022/03/29 18:42:23;;;;;;;9.43;2.30;;;;;;;;;;5023162;28;20049;-87
2022/03/29 18:44:51;;;;;;;6.47;1.70;;;;;;;;;;5024483;28;20144;-87
2022/03/29 18:47:19;;;;;;;7.88;1.77;;;;;;;;;;5002619;28;20156;-87
2022/03/29 18:49:47;;;;;;;8.48;1.90;;;;;;;;;;5009959;28;20145;-87
2022/03/29 18:52:16;;;;;;;3.88;1.30;;;;;;;;;;5051580;28;20678;-87
2022/03/29 18:54:46;;;;;;;9.88;1.60;;;;;;;;;;4993328;28;20141;-87
2022/03/29 18:57:13;;;;;;;6.22;1.35;;;;;;;;;;5038845;28;20976;-87
2022/03/29 18:59:41;;;;;;;7.68;1.48;;;;;;;;;;5039191;28;20068;-87
2022/03/29 19:02:09;;;;;;;10.52;1.95;;;;;;;;;;5004210;28;20060;-87
2022/03/29 19:04:38;;;;;;;8.27;1.52;;;;;;;;;;5018191;28;20045;-87
2022/03/29 19:07:07;;;;;;;7.10;1.35;;;;;;;;;;5022959;28;20543;-87
2022/03/29 19:09:35;;;;;;;3.83;1.23;;;;;;;;;;5024495;28;20139;-87
2022/03/29 19:12:03;;;;;;;8.98;1.75;;;;;;;;;;5021349;28;20128;-87
2022/03/29 19:14:31;;;;;;;6.85;1.67;;;;;;;;;;5020561;28;20048;-87
2022/03/29 19:16:59;;;;;;;10.43;2.05;;;;;;;;;;5043654;28;20046;-87
2022/03/29 19:19:29;;;;;;;3.92;1.45;;;;;;;;;;5016052;28;20494;-87
2022/03/29 19:21:58;;;;;;;6.55;1.50;;;;;;;;;;5005262;28;20140;-87
2022/03/29 19:24:29;;;;;;;6.05;1.65;;;;;;;;;;5015533;28;20494;-87
2022/03/29 19:27:00;;;;;;;5.03;2.00;;;;;;;;;;5036092;28;20041;-87
2022/03/29 19:29:32;;;;;;;6.97;1.33;;;;;;;;;;5019960;28;20100;-87
2022/03/29 19:32:00;;;;;;;7.60;1.52;;;;;;;;;;5006671;28;20049;-87
2022/03/29 19:34:27;;;;;;;9.73;1.60;;;;;;;;;;5027909;28;20046;-87
2022/03/29 19:36:55;;;;;;;8.52;1.40;;;;;;;;;;5009654;28;20045;-87
2022/03/29 19:39:48;;;;;;;6.07;1.40;;;;;;;;;;5004696;28;20053;-87
2022/03/29 19:42:20;;;;;;;6.57;1.65;;;;;;;;;;5033840;28;20056;-87
2022/03/29 19:45:01;;;;;;;6.95;1.45;;;;;;;;;;5022331;28;20045;-87
2022/03/29 19:47:32;;;;;;;3.38;1.20;;;;;;;;;;5036620;28;20076;-87
2022/03/29 19:50:02;;;;;;;5.95;1.40;;;;;;;;;;5002079;28;20049;-87
2022/03/29 19:52:31;;;;;;;6.07;1.58;;;;;;;;;;4984300;28;20045;-87
2022/03/29 19:54:59;;;;;;;5.88;1.58;;;;;;;;;;5007561;28;20068;-87
2022/03/29 19:57:27;;;;;;;6.15;1.25;;;;;;;;;;5009249;28;20099;-87
2022/03/29 19:59:55;;;;;;;6.93;1.55;;;;;;;;;;5009803;28;20100;-87
2022/03/29 20:02:25;;;;;;;6.05;1.88;;;;;;;;;;5037273;28;20053;-87
2022/03/29 20:04:57;;;;;;;6.55;1.55;;;;;;;;;;5000761;28;20056;-87
2022/03/29 20:07:28;;;;;;;4.20;1.38;;;;;;;;;;5027252;28;20041;-87